CheckWX is a tool to help pilots better visualize weather data.  It is not intended as a substitute for an official pre-flight weather briefing.

23:58:44 UTC

KCOE METAR
Coeur D'alene - Pappy Boyington Field Airport
Coeur D'alene, Idaho, USA
Current

1 hour ago

KCOE 192256Z AUTO 04008KT 10SM BKN049 OVC060 02/01 A3037 RMK AO2 UPB03E05B41E48RAB05E41 SLP326 P0000 T00170006 FZRANO
Observed
Jan-19 @ 22:56 UTC
Wind
  • 040° at 8 KTS
Visibility
10 SM
Flight Rules
VFR
Cloud Levels
  • Broken at 4,900' AGL
  • Overcast at 6,000' AGL
Temperature
C / 36°F
Dewpoint
C / 34°F
Humidity
93%
Altimeter
30.37" Hg
Pressure
1028.42 hPa
Current Rain
0.01"
Previous

2 hours ago

KCOE 192156Z AUTO 04010KT 10SM OVC050 02/00 A3038 RMK AO2 SLP328 T00220000 FZRANO
Observed
Jan-19 @ 21:56 UTC
Wind
  • 040° at 10 KTS
Visibility
10 SM
Flight Rules
VFR
Cloud Levels
  • Overcast at 5,000' AGL
Temperature
C / 36°F
Dewpoint
C / 32°F
Humidity
87%
Altimeter
30.38" Hg
Pressure
1028.82 hPa
Previous

3 hours ago

KCOE 192056Z AUTO 04008KT 10SM OVC055 02/00 A3039 RMK AO2 SLP333 T00220000 58014 FZRANO
Observed
Jan-19 @ 20:56 UTC
Wind
  • 040° at 8 KTS
Visibility
10 SM
Flight Rules
VFR
Cloud Levels
  • Overcast at 5,500' AGL
Temperature
C / 36°F
Dewpoint
C / 32°F
Humidity
87%
Altimeter
30.39" Hg
Pressure
1029.12 hPa